Terminal Aerodrome Forecast
Issued by NWS Huntsville, AL

Home | Current Version | Previous Version | Text Only | Print | Product List | Glossary On
Versions: 1 2 3 4 5 6 7 8 9 10 11 12 13 14 15 16 17 18 19 20
000
FTUS44 KHUN 241735
TAFMSL
TAF
KMSL 241735Z 2418/2518 35008KT P6SM SCT040 BKN250
     FM250200 01006KT P6SM FEW040 BKN250
     FM250900 01004KT P6SM BKN130=

USA.gov is the U.S. government's official web portal to all federal, state and local government web resources and services.